createdAt,value
2018-10-09T00:00:14.004Z,0.00
2018-10-09T00:01:13.916Z,0.00
2018-10-09T00:02:13.864Z,0.00
2018-10-09T00:03:13.816Z,0.00
2018-10-09T00:04:13.796Z,0.00
2018-10-09T00:05:13.712Z,0.00
2018-10-09T00:06:13.693Z,0.00
2018-10-09T00:07:13.608Z,0.00
2018-10-09T00:08:13.558Z,0.00
2018-10-09T00:09:13.554Z,0.00
2018-10-09T00:10:13.459Z,0.00
2018-10-09T00:11:13.411Z,0.00
2018-10-09T00:12:13.359Z,0.00
2018-10-09T00:13:13.308Z,0.00
2018-10-09T00:14:13.279Z,0.00
2018-10-09T00:15:13.206Z,0.00
2018-10-09T00:16:13.153Z,0.00
2018-10-09T00:17:13.140Z,0.00
2018-10-09T00:18:13.095Z,0.00
2018-10-09T00:19:13.001Z,0.00
2018-10-09T00:20:12.958Z,0.00
2018-10-09T00:21:12.901Z,0.00
2018-10-09T00:22:12.891Z,0.00
2018-10-09T00:23:12.797Z,0.00
2018-10-09T00:24:12.753Z,0.00
2018-10-09T00:25:12.698Z,0.00
2018-10-09T00:26:12.688Z,0.00
2018-10-09T00:27:12.634Z,0.00
2018-10-09T00:28:12.546Z,0.00
2018-10-09T00:29:12.499Z,0.00
2018-10-09T00:30:12.445Z,0.00
2018-10-09T00:31:12.400Z,0.00
2018-10-09T00:32:12.377Z,0.00
2018-10-09T00:33:12.295Z,0.00
2018-10-09T00:34:12.246Z,0.00
2018-10-09T00:35:12.227Z,0.00
2018-10-09T00:36:12.146Z,0.00
2018-10-09T00:37:12.093Z,0.00
2018-10-09T00:38:12.040Z,0.00
2018-10-09T00:39:11.993Z,0.00
2018-10-09T00:40:11.971Z,0.00
2018-10-09T00:41:11.887Z,0.00
2018-10-09T00:42:11.841Z,0.00
2018-10-09T00:43:11.786Z,0.00
2018-10-09T00:44:11.774Z,0.00
2018-10-09T00:45:11.686Z,0.00
2018-10-09T00:46:11.635Z,0.00
2018-10-09T00:47:11.589Z,0.00
2018-10-09T00:48:11.532Z,0.00
2018-10-09T00:49:11.522Z,0.00
2018-10-09T00:50:11.433Z,0.00
2018-10-09T00:51:11.381Z,0.00
2018-10-09T00:52:11.339Z,0.00
2018-10-09T00:53:11.280Z,0.00
2018-10-09T00:54:11.271Z,0.00
2018-10-09T00:55:11.179Z,0.00
2018-10-09T00:56:11.162Z,0.00
2018-10-09T00:57:11.075Z,0.00
2018-10-09T00:58:11.026Z,0.00
2018-10-09T00:59:10.977Z,0.00
2018-10-09T01:00:10.927Z,0.00
2018-10-09T01:01:10.914Z,0.00
2018-10-09T01:02:10.826Z,0.00
2018-10-09T01:03:10.772Z,0.00
2018-10-09T01:04:10.725Z,0.00
2018-10-09T01:05:10.675Z,0.00
2018-10-09T01:06:10.648Z,0.00
2018-10-09T01:07:10.573Z,0.00
2018-10-09T01:08:10.521Z,0.00
2018-10-09T01:09:10.541Z,0.00
2018-10-09T01:10:10.420Z,0.00
2018-10-09T01:11:10.404Z,0.00
2018-10-09T01:12:10.319Z,0.00
2018-10-09T01:13:10.269Z,0.00
2018-10-09T01:14:10.220Z,0.00
2018-10-09T01:15:10.169Z,0.00
2018-10-09T01:16:10.150Z,0.00
2018-10-09T01:17:10.065Z,0.00
2018-10-09T01:18:10.021Z,0.00
2018-10-09T01:19:09.966Z,0.00
2018-10-09T01:20:09.945Z,0.00
2018-10-09T01:21:09.870Z,0.00
2018-10-09T01:22:09.814Z,0.00
2018-10-09T01:23:09.796Z,0.00
2018-10-09T01:24:09.712Z,0.00
2018-10-09T01:25:09.663Z,0.00
2018-10-09T01:26:09.613Z,0.00
2018-10-09T01:27:09.561Z,0.00
2018-10-09T01:28:09.542Z,0.00
2018-10-09T01:29:09.494Z,0.00
2018-10-09T01:30:09.417Z,0.00
2018-10-09T01:31:09.358Z,0.00
2018-10-09T01:32:09.308Z,0.00
2018-10-09T01:33:09.293Z,0.00
2018-10-09T01:34:09.206Z,0.00
2018-10-09T01:35:09.156Z,0.00
2018-10-09T01:36:09.136Z,0.00
2018-10-09T01:37:09.057Z,0.00
2018-10-09T01:38:09.005Z,0.00
2018-10-09T01:39:08.957Z,0.00
2018-10-09T01:40:08.903Z,0.00
2018-10-09T01:41:08.897Z,0.00
2018-10-09T01:42:08.802Z,0.00
2018-10-09T01:43:08.754Z,0.00
2018-10-09T01:44:08.702Z,0.00
2018-10-09T01:45:08.650Z,0.00
2018-10-09T01:46:08.630Z,0.00
2018-10-09T01:47:08.547Z,0.00
2018-10-09T01:48:08.497Z,0.00
2018-10-09T01:49:08.445Z,0.00
2018-10-09T01:50:08.398Z,0.00
2018-10-09T01:51:08.382Z,0.00
2018-10-09T01:52:08.327Z,0.00
2018-10-09T01:53:08.277Z,0.00
2018-10-09T01:54:08.194Z,0.00
2018-10-09T01:55:08.144Z,0.00
2018-10-09T01:56:08.094Z,0.00
2018-10-09T01:57:08.081Z,0.00
2018-10-09T01:58:07.989Z,0.00
2018-10-09T01:59:07.937Z,0.00
2018-10-09T02:00:07.892Z,0.00
2018-10-09T02:01:07.844Z,0.00
2018-10-09T02:02:07.817Z,0.00
2018-10-09T02:03:07.738Z,0.00
2018-10-09T02:04:07.682Z,0.00
2018-10-09T02:05:07.674Z,0.00
2018-10-09T02:06:07.588Z,0.00
2018-10-09T02:07:07.536Z,0.00
2018-10-09T02:08:07.517Z,0.00
2018-10-09T02:09:07.433Z,0.00
2018-10-09T02:10:07.380Z,0.00
2018-10-09T02:11:07.329Z,0.00
2018-10-09T02:12:07.308Z,0.00
2018-10-09T02:13:07.226Z,0.00
2018-10-09T02:14:07.210Z,0.00
2018-10-09T02:15:07.123Z,0.00
2018-10-09T02:16:07.080Z,0.00
2018-10-09T02:17:07.027Z,0.00
2018-10-09T02:18:06.978Z,0.00
2018-10-09T02:19:06.966Z,0.00
2018-10-09T02:20:06.870Z,0.00
2018-10-09T02:21:06.818Z,0.00
2018-10-09T02:22:06.768Z,0.00
2018-10-09T02:23:06.731Z,0.00
2018-10-09T02:24:06.699Z,0.00
2018-10-09T02:25:06.646Z,0.00
2018-10-09T02:26:06.562Z,0.00
2018-10-09T02:27:06.512Z,0.00
2018-10-09T02:28:06.510Z,0.00
2018-10-09T02:29:06.409Z,0.00
2018-10-09T02:30:06.360Z,0.00
2018-10-09T02:31:06.306Z,0.00
2018-10-09T02:32:06.259Z,0.00
2018-10-09T02:33:06.243Z,0.00
2018-10-09T02:34:06.159Z,0.00
2018-10-09T02:35:06.103Z,0.00
2018-10-09T02:36:06.060Z,0.00
2018-10-09T02:37:06.004Z,0.00
2018-10-09T02:38:05.984Z,0.00
2018-10-09T02:39:05.904Z,0.00
2018-10-09T02:40:05.891Z,0.00
2018-10-09T02:41:05.797Z,0.00
2018-10-09T02:42:05.748Z,0.00
2018-10-09T02:43:05.736Z,0.00
2018-10-09T02:44:05.643Z,0.00
2018-10-09T02:45:05.629Z,0.00
2018-10-09T02:46:05.558Z,0.00
2018-10-09T02:47:05.490Z,0.00
2018-10-09T02:48:05.469Z,0.00
2018-10-09T02:49:05.389Z,0.00
2018-10-09T02:50:05.368Z,0.00
2018-10-09T02:51:05.282Z,0.00
2018-10-09T02:52:05.232Z,0.00
2018-10-09T02:53:05.213Z,0.00
2018-10-09T02:54:05.138Z,0.00
2018-10-09T02:55:05.080Z,0.00
2018-10-09T02:56:05.029Z,0.00
2018-10-09T02:57:04.980Z,0.00
2018-10-09T02:58:04.959Z,0.00
2018-10-09T02:59:04.878Z,0.00
2018-10-09T03:00:04.829Z,0.00
2018-10-09T03:01:04.806Z,0.00
2018-10-09T03:02:04.728Z,0.00
2018-10-09T03:03:04.707Z,0.00
2018-10-09T03:04:04.620Z,0.00
2018-10-09T03:05:04.568Z,0.00
2018-10-09T03:06:04.551Z,0.00
2018-10-09T03:07:04.516Z,0.00
2018-10-09T03:08:04.419Z,0.00
2018-10-09T03:09:04.380Z,0.00
2018-10-09T03:10:04.319Z,0.00
2018-10-09T03:11:04.265Z,0.00
2018-10-09T03:12:04.252Z,0.00
2018-10-09T03:13:04.162Z,0.00
2018-10-09T03:14:04.111Z,0.00
2018-10-09T03:15:04.058Z,0.00
2018-10-09T03:16:04.005Z,0.00
2018-10-09T03:17:03.990Z,0.00
2018-10-09T03:18:03.921Z,0.00
2018-10-09T03:19:03.870Z,0.00
2018-10-09T03:20:03.851Z,0.00
2018-10-09T03:21:03.758Z,0.00
2018-10-09T03:22:03.706Z,0.00
2018-10-09T03:23:03.654Z,0.00
2018-10-09T03:24:03.603Z,0.00
2018-10-09T03:25:03.583Z,0.00
2018-10-09T03:26:03.506Z,0.00
2018-10-09T03:27:03.474Z,0.00
2018-10-09T03:28:03.393Z,0.00
2018-10-09T03:29:03.342Z,0.00
2018-10-09T03:30:03.329Z,0.00
2018-10-09T03:31:03.241Z,0.00
2018-10-09T03:32:03.223Z,0.00
2018-10-09T03:33:03.137Z,0.00
2018-10-09T03:34:03.089Z,0.00
2018-10-09T03:35:03.077Z,0.00
2018-10-09T03:36:02.984Z,0.00
2018-10-09T03:37:02.936Z,0.00
2018-10-09T03:38:02.892Z,0.00
2018-10-09T03:39:02.832Z,0.00
2018-10-09T03:40:02.811Z,0.00
2018-10-09T03:41:02.726Z,0.00
2018-10-09T03:42:02.679Z,0.00
2018-10-09T03:43:02.624Z,0.00
2018-10-09T03:44:02.577Z,0.00
2018-10-09T03:45:02.560Z,0.00
2018-10-09T03:46:02.479Z,0.00
2018-10-09T03:47:02.426Z,0.00
2018-10-09T03:48:02.370Z,0.00
2018-10-09T03:49:02.358Z,0.00
2018-10-09T03:50:02.269Z,0.00
2018-10-09T03:51:02.221Z,0.00
2018-10-09T03:52:02.167Z,0.00
2018-10-09T03:53:02.116Z,0.00
2018-10-09T03:54:02.096Z,0.00
2018-10-09T03:55:02.012Z,0.00
2018-10-09T03:56:01.961Z,0.00
2018-10-09T03:57:01.915Z,0.00
2018-10-09T03:58:01.868Z,0.00
2018-10-09T03:59:01.844Z,0.00
2018-10-09T04:00:01.761Z,0.00
2018-10-09T04:01:01.705Z,0.00
2018-10-09T04:02:01.654Z,0.00
2018-10-09T04:03:01.643Z,0.00
2018-10-09T04:04:01.554Z,0.00
2018-10-09T04:05:01.502Z,0.00
2018-10-09T04:06:01.456Z,0.00
2018-10-09T04:07:01.434Z,0.00
2018-10-09T04:08:01.351Z,0.00
2018-10-09T04:09:01.328Z,0.00
2018-10-09T04:10:01.289Z,0.00
2018-10-09T04:11:01.194Z,0.00
2018-10-09T04:12:01.145Z,0.00
2018-10-09T04:13:01.094Z,0.00
2018-10-09T04:14:01.044Z,0.00
2018-10-09T04:15:01.024Z,0.00
2018-10-09T04:16:00.939Z,0.00
2018-10-09T04:17:00.890Z,0.00
2018-10-09T04:18:00.839Z,0.00
2018-10-09T04:19:00.791Z,0.00
2018-10-09T04:20:00.865Z,0.00
2018-10-09T04:21:00.687Z,0.00
2018-10-09T04:22:00.632Z,0.00
2018-10-09T04:23:00.579Z,0.00
2018-10-09T04:24:00.533Z,0.00
2018-10-09T04:25:00.509Z,0.00
2018-10-09T04:26:00.426Z,0.00
2018-10-09T04:27:00.413Z,0.00
2018-10-09T04:28:00.325Z,0.00
2018-10-09T04:29:00.273Z,0.00
2018-10-09T04:30:00.228Z,0.00
2018-10-09T04:31:00.202Z,0.00
2018-10-09T04:32:00.249Z,0.00
2018-10-09T04:33:00.073Z,0.00
2018-10-09T04:34:00.020Z,0.00
2018-10-09T04:34:59.968Z,0.00
2018-10-09T04:35:59.916Z,0.00
2018-10-09T04:36:59.897Z,0.00
2018-10-09T04:37:59.812Z,0.00
2018-10-09T04:38:59.760Z,0.00
2018-10-09T04:39:59.717Z,0.00
2018-10-09T04:40:59.703Z,0.00
2018-10-09T04:41:59.611Z,0.00
2018-10-09T04:42:59.557Z,0.00
2018-10-09T04:43:59.512Z,0.00
2018-10-09T04:44:59.456Z,0.00
2018-10-09T04:45:59.459Z,0.00
2018-10-09T04:46:59.358Z,0.00
2018-10-09T04:47:59.327Z,0.00
2018-10-09T04:48:59.253Z,0.00
2018-10-09T04:49:59.200Z,0.00
2018-10-09T04:50:59.191Z,0.00
2018-10-09T04:51:59.103Z,0.00
2018-10-09T04:52:59.092Z,0.00
2018-10-09T04:53:58.998Z,0.00
2018-10-09T04:54:58.942Z,0.00
2018-10-09T04:55:58.923Z,0.00
2018-10-09T04:56:58.848Z,0.00
2018-10-09T04:57:58.792Z,0.00
2018-10-09T04:58:58.739Z,0.00
2018-10-09T04:59:58.689Z,0.00
2018-10-09T05:00:58.673Z,0.00
2018-10-09T05:01:58.590Z,0.00
2018-10-09T05:02:58.569Z,0.00
2018-10-09T05:03:58.483Z,0.00
2018-10-09T05:04:58.437Z,0.00
2018-10-09T05:05:58.383Z,0.00
2018-10-09T05:06:58.333Z,0.00
2018-10-09T05:07:58.317Z,0.00
2018-10-09T05:08:58.232Z,0.00
2018-10-09T05:09:58.177Z,0.00
2018-10-09T05:10:58.124Z,0.00
2018-10-09T05:11:58.106Z,0.00
2018-10-09T05:12:58.022Z,0.00
2018-10-09T05:13:57.973Z,0.00
2018-10-09T05:14:57.922Z,0.00
2018-10-09T05:15:57.903Z,0.00
2018-10-09T05:16:57.823Z,0.00
2018-10-09T05:17:57.769Z,0.00
2018-10-09T05:18:57.717Z,0.00
2018-10-09T05:19:57.665Z,0.00
2018-10-09T05:20:57.660Z,0.00
2018-10-09T05:21:57.564Z,0.00
2018-10-09T05:22:57.512Z,0.00
2018-10-09T05:23:57.459Z,0.00
2018-10-09T05:24:57.413Z,0.00
2018-10-09T05:25:57.388Z,0.00
2018-10-09T05:26:57.306Z,0.00
2018-10-09T05:27:57.262Z,0.00
2018-10-09T05:28:57.204Z,0.00
2018-10-09T05:29:57.151Z,0.00
2018-10-09T05:30:57.163Z,0.00
2018-10-09T05:31:57.062Z,0.00
2018-10-09T05:32:57.000Z,0.00
2018-10-09T05:33:56.947Z,5.63
2018-10-09T05:34:56.934Z,5.63
2018-10-09T05:35:56.845Z,5.63
2018-10-09T05:36:56.826Z,5.63
2018-10-09T05:37:56.749Z,5.63
2018-10-09T05:38:56.697Z,5.63
2018-10-09T05:39:56.639Z,11.25
2018-10-09T05:40:56.588Z,11.25
2018-10-09T05:41:56.575Z,11.25
2018-10-09T05:42:56.488Z,11.25
2018-10-09T05:43:56.436Z,16.88
2018-10-09T05:44:56.385Z,16.88
2018-10-09T05:45:56.334Z,16.88
2018-10-09T05:46:56.313Z,22.50
2018-10-09T05:47:56.230Z,22.50
2018-10-09T05:48:56.178Z,22.50
2018-10-09T05:49:56.129Z,28.13
2018-10-09T05:50:56.078Z,28.13
2018-10-09T05:51:56.065Z,33.75
2018-10-09T05:52:55.978Z,33.75
2018-10-09T05:53:55.924Z,33.75
2018-10-09T05:54:55.870Z,33.75
2018-10-09T05:55:55.830Z,39.38
2018-10-09T05:56:55.800Z,39.38
2018-10-09T05:57:55.727Z,39.38
2018-10-09T05:58:55.673Z,45.00
2018-10-09T05:59:55.617Z,50.63
2018-10-09T06:00:55.564Z,56.25
2018-10-09T06:01:55.548Z,56.25
2018-10-09T06:02:55.496Z,61.88
2018-10-09T06:03:55.411Z,67.50
2018-10-09T06:04:55.365Z,73.13
2018-10-09T06:05:55.386Z,73.13
2018-10-09T06:06:55.289Z,73.13
2018-10-09T06:07:55.207Z,73.13
2018-10-09T06:08:55.186Z,73.13
2018-10-09T06:09:55.107Z,73.13
2018-10-09T06:10:55.054Z,73.13
2018-10-09T06:11:55.002Z,73.13
2018-10-09T06:12:54.952Z,73.13
2018-10-09T06:13:54.935Z,73.13
2018-10-09T06:14:54.855Z,73.13
2018-10-09T06:15:54.877Z,73.13
2018-10-09T06:16:54.749Z,73.13
2018-10-09T06:17:54.698Z,78.75
2018-10-09T06:18:54.679Z,78.75
2018-10-09T06:19:54.599Z,78.75
2018-10-09T06:20:54.547Z,84.38
2018-10-09T06:21:54.495Z,90.00
2018-10-09T06:22:54.445Z,95.63
2018-10-09T06:23:54.425Z,101.25
2018-10-09T06:24:54.348Z,106.88
2018-10-09T06:25:54.292Z,112.50
2018-10-09T06:26:54.242Z,118.13
2018-10-09T06:27:54.204Z,118.13
2018-10-09T06:28:54.178Z,118.13
2018-10-09T06:29:54.130Z,129.38
2018-10-09T06:30:54.043Z,146.25
2018-10-09T06:31:53.996Z,157.50
2018-10-09T06:32:53.946Z,157.50
2018-10-09T06:33:53.949Z,157.50
2018-10-09T06:34:53.876Z,157.50
2018-10-09T06:35:53.790Z,157.50
2018-10-09T06:36:53.736Z,157.50
2018-10-09T06:37:53.689Z,157.50
2018-10-09T06:38:53.637Z,163.13
2018-10-09T06:39:53.619Z,163.13
2018-10-09T06:40:53.538Z,168.75
2018-10-09T06:41:53.485Z,174.38
2018-10-09T06:42:53.566Z,185.63
2018-10-09T06:43:53.389Z,191.25
2018-10-09T06:44:53.339Z,196.88
2018-10-09T06:45:53.287Z,196.88
2018-10-09T06:46:53.238Z,213.75
2018-10-09T06:47:53.225Z,213.75
2018-10-09T06:48:53.140Z,230.63
2018-10-09T06:49:53.088Z,241.88
2018-10-09T06:50:53.044Z,258.75
2018-10-09T06:51:53.030Z,270.00
2018-10-09T06:52:52.936Z,281.25
2018-10-09T06:53:53.018Z,281.25
2018-10-09T06:54:52.923Z,286.88
2018-10-09T06:55:52.786Z,281.25
2018-10-09T06:56:52.777Z,320.63
2018-10-09T06:57:52.696Z,388.13
2018-10-09T06:58:52.639Z,489.38
2018-10-09T06:59:52.587Z,663.75
2018-10-09T07:00:52.536Z,714.38
2018-10-09T07:01:52.529Z,601.88
2018-10-09T07:02:52.436Z,478.13
2018-10-09T07:03:52.389Z,472.50
2018-10-09T07:04:52.339Z,489.38
2018-10-09T07:05:52.298Z,523.13
2018-10-09T07:06:52.275Z,483.75
2018-10-09T07:07:52.191Z,478.13
2018-10-09T07:08:52.144Z,523.13
2018-10-09T07:09:52.100Z,675.00
2018-10-09T07:10:52.048Z,911.25
2018-10-09T07:11:52.031Z,849.38
2018-10-09T07:12:51.952Z,590.63
2018-10-09T07:13:51.903Z,506.25
2018-10-09T07:14:51.858Z,545.63
2018-10-09T07:15:51.805Z,590.63
2018-10-09T07:16:51.799Z,630.00
2018-10-09T07:17:51.715Z,725.63
2018-10-09T07:18:51.663Z,956.25
2018-10-09T07:19:51.617Z,984.38
2018-10-09T07:20:51.570Z,1108.13
2018-10-09T07:21:51.561Z,1344.38
2018-10-09T07:22:51.473Z,1440.00
2018-10-09T07:23:51.426Z,1350.00
2018-10-09T07:24:51.380Z,1181.25
2018-10-09T07:25:51.382Z,1023.75
2018-10-09T07:26:51.294Z,1057.50
2018-10-09T07:27:51.306Z,1147.50
2018-10-09T07:28:51.219Z,1305.00
2018-10-09T07:29:51.151Z,1260.00
2018-10-09T07:30:51.147Z,1119.38
2018-10-09T07:31:51.063Z,1057.50
2018-10-09T07:32:51.017Z,973.13
2018-10-09T07:33:50.978Z,714.38
2018-10-09T07:34:50.930Z,883.13
2018-10-09T07:35:50.929Z,849.38
2018-10-09T07:36:50.845Z,753.75
2018-10-09T07:37:50.796Z,697.50
2018-10-09T07:38:50.750Z,691.88
2018-10-09T07:39:50.709Z,725.63
2018-10-09T07:40:50.692Z,742.50
2018-10-09T07:41:50.619Z,675.00
2018-10-09T07:42:50.578Z,663.75
2018-10-09T07:43:50.545Z,776.25
2018-10-09T07:44:50.519Z,770.63
2018-10-09T07:45:50.444Z,680.63
2018-10-09T07:46:50.437Z,596.25
2018-10-09T07:47:50.353Z,579.38
2018-10-09T07:48:50.303Z,568.13
2018-10-09T07:49:50.297Z,556.88
2018-10-09T07:50:50.215Z,669.38
2018-10-09T07:51:50.207Z,568.13
2018-10-09T07:52:50.163Z,573.75
2018-10-09T07:53:50.086Z,534.38
2018-10-09T07:54:50.041Z,613.13
2018-10-09T07:55:49.995Z,714.38
2018-10-09T07:56:49.977Z,765.00
2018-10-09T07:57:49.908Z,714.38
2018-10-09T07:58:49.895Z,630.00
2018-10-09T07:59:49.819Z,562.50
2018-10-09T08:00:49.801Z,517.50
2018-10-09T08:01:49.731Z,585.00
2018-10-09T08:02:49.682Z,725.63
2018-10-09T08:03:49.642Z,815.63
2018-10-09T08:04:49.720Z,905.63
2018-10-09T08:05:49.581Z,1074.38
2018-10-09T08:06:49.503Z,1518.75
2018-10-09T08:07:49.464Z,2216.25
2018-10-09T08:08:49.448Z,2373.75
2018-10-09T08:09:49.401Z,2154.38
2018-10-09T08:10:49.372Z,2064.38
2018-10-09T08:11:49.291Z,1968.75
2018-10-09T08:12:49.242Z,2115.00
2018-10-09T08:13:49.207Z,2565.00
2018-10-09T08:14:49.156Z,2913.75
2018-10-09T08:15:49.139Z,2941.88
2018-10-09T08:16:49.067Z,2953.13
2018-10-09T08:17:49.027Z,2947.50
2018-10-09T08:18:48.992Z,2998.13
2018-10-09T08:19:48.945Z,2733.75
2018-10-09T08:20:48.933Z,2700.00
2018-10-09T08:21:48.863Z,2514.38
2018-10-09T08:22:48.892Z,2205.00
2018-10-09T08:23:48.830Z,1901.25
2018-10-09T08:24:48.757Z,1867.50
2018-10-09T08:25:48.702Z,2047.50
2018-10-09T08:26:48.667Z,2070.00
2018-10-09T08:27:48.632Z,2784.38
2018-10-09T08:28:48.618Z,3082.50
2018-10-09T08:29:48.549Z,2958.75
2018-10-09T08:30:48.538Z,2424.38
2018-10-09T08:31:48.475Z,2160.00
2018-10-09T08:32:48.435Z,1957.50
2018-10-09T08:33:48.435Z,1912.50
2018-10-09T08:34:48.351Z,2064.38
2018-10-09T08:35:48.320Z,2109.38
2018-10-09T08:36:48.278Z,2188.13
2018-10-09T08:37:48.243Z,2154.38
2018-10-09T08:38:48.240Z,1895.63
2018-10-09T08:39:48.162Z,1451.25
2018-10-09T08:40:48.159Z,1192.50
2018-10-09T08:41:48.090Z,973.13
2018-10-09T08:42:48.053Z,770.63
2018-10-09T08:43:48.016Z,658.13
2018-10-09T08:44:47.975Z,613.13
2018-10-09T08:45:47.968Z,579.38
2018-10-09T08:46:47.901Z,556.88
2018-10-09T08:47:47.863Z,551.25
2018-10-09T08:48:47.836Z,540.00
2018-10-09T08:49:47.784Z,534.38
2018-10-09T08:50:47.779Z,517.50
2018-10-09T08:51:47.765Z,478.13
2018-10-09T08:52:47.671Z,478.13
2018-10-09T08:53:47.635Z,483.75
2018-10-09T08:54:47.597Z,466.88
2018-10-09T08:55:47.591Z,466.88
2018-10-09T08:56:47.521Z,455.63
2018-10-09T08:57:47.478Z,433.13
2018-10-09T08:58:47.441Z,421.88
2018-10-09T08:59:47.441Z,421.88
2018-10-09T09:00:47.366Z,433.13
2018-10-09T09:01:47.323Z,450.00
2018-10-09T09:02:47.301Z,450.00
2018-10-09T09:03:47.247Z,450.00
2018-10-09T09:04:47.246Z,444.38
2018-10-09T09:05:47.162Z,444.38
2018-10-09T09:06:47.127Z,450.00
2018-10-09T09:07:47.083Z,455.63
2018-10-09T09:08:47.050Z,450.00
2018-10-09T09:09:47.106Z,455.63
2018-10-09T09:10:46.964Z,450.00
2018-10-09T09:11:46.995Z,450.00
2018-10-09T09:12:46.917Z,444.38
2018-10-09T09:13:46.847Z,427.50
2018-10-09T09:14:46.852Z,416.25
2018-10-09T09:15:46.765Z,410.63
2018-10-09T09:16:46.727Z,388.13
2018-10-09T09:17:46.691Z,360.00
2018-10-09T09:18:46.674Z,348.75
2018-10-09T09:19:46.601Z,337.50
2018-10-09T09:20:46.574Z,326.25
2018-10-09T09:21:46.539Z,326.25
2018-10-09T09:22:46.486Z,320.63
2018-10-09T09:23:46.472Z,315.00
2018-10-09T09:24:46.394Z,309.38
2018-10-09T09:25:46.354Z,309.38
2018-10-09T09:26:46.421Z,309.38
2018-10-09T09:27:46.345Z,309.38
2018-10-09T09:28:46.258Z,303.75
2018-10-09T09:29:46.226Z,303.75
2018-10-09T09:30:46.141Z,320.63
2018-10-09T09:31:46.104Z,326.25
2018-10-09T09:32:46.064Z,331.88
2018-10-09T09:33:46.021Z,331.88
2018-10-09T09:34:46.029Z,337.50
2018-10-09T09:35:45.928Z,331.88
2018-10-09T09:36:45.901Z,337.50
2018-10-09T09:37:45.844Z,343.13
2018-10-09T09:38:45.807Z,337.50
2018-10-09T09:39:45.794Z,337.50
2018-10-09T09:40:45.754Z,348.75
2018-10-09T09:41:45.673Z,354.38
2018-10-09T09:42:45.635Z,360.00
2018-10-09T09:43:45.586Z,354.38
2018-10-09T09:44:45.545Z,337.50
2018-10-09T09:45:45.542Z,337.50
2018-10-09T09:46:45.460Z,337.50
2018-10-09T09:47:45.418Z,331.88
2018-10-09T09:48:45.378Z,326.25
2018-10-09T09:49:45.326Z,320.63
2018-10-09T09:50:45.315Z,320.63
2018-10-09T09:51:45.250Z,315.00
2018-10-09T09:52:45.226Z,309.38
2018-10-09T09:53:45.154Z,315.00
2018-10-09T09:54:45.114Z,303.75
2018-10-09T09:55:45.071Z,286.88
2018-10-09T09:56:45.026Z,275.63
2018-10-09T09:57:45.060Z,275.63
2018-10-09T09:58:45.157Z,275.63
2018-10-09T09:59:44.898Z,281.25
2018-10-09T10:00:44.862Z,292.50
2018-10-09T10:01:44.809Z,303.75
2018-10-09T10:02:44.800Z,320.63
2018-10-09T10:03:44.748Z,354.38
2018-10-09T10:04:44.675Z,388.13
2018-10-09T10:05:44.632Z,410.63
2018-10-09T10:06:44.637Z,416.25
2018-10-09T10:07:44.601Z,433.13
2018-10-09T10:08:44.503Z,416.25
2018-10-09T10:09:44.454Z,416.25
2018-10-09T10:10:44.412Z,416.25
2018-10-09T10:11:44.370Z,416.25
2018-10-09T10:12:44.357Z,410.63
2018-10-09T10:13:44.313Z,410.63
2018-10-09T10:14:44.236Z,421.88
2018-10-09T10:15:44.230Z,421.88
2018-10-09T10:16:44.152Z,405.00
2018-10-09T10:17:44.127Z,405.00
2018-10-09T10:18:44.100Z,405.00
2018-10-09T10:19:44.024Z,405.00
2018-10-09T10:20:44.012Z,388.13
2018-10-09T10:21:43.945Z,393.75
2018-10-09T10:22:43.892Z,393.75
2018-10-09T10:23:43.885Z,399.38
2018-10-09T10:24:43.806Z,410.63
2018-10-09T10:25:43.765Z,405.00
2018-10-09T10:26:43.722Z,405.00
2018-10-09T10:27:43.676Z,410.63
2018-10-09T10:28:43.675Z,405.00
2018-10-09T10:29:43.595Z,421.88
2018-10-09T10:30:43.559Z,427.50
2018-10-09T10:31:43.522Z,444.38
2018-10-09T10:32:43.475Z,450.00
2018-10-09T10:33:43.456Z,472.50
2018-10-09T10:34:43.399Z,489.38
2018-10-09T10:35:43.441Z,478.13
2018-10-09T10:36:43.373Z,433.13
2018-10-09T10:37:43.259Z,433.13
2018-10-09T10:38:43.262Z,444.38
2018-10-09T10:39:43.187Z,444.38
2018-10-09T10:40:43.143Z,495.00
2018-10-09T10:41:43.090Z,511.88
2018-10-09T10:42:43.041Z,523.13
2018-10-09T10:43:43.041Z,517.50
2018-10-09T10:44:42.964Z,483.75
2018-10-09T10:45:42.916Z,466.88
2018-10-09T10:46:42.877Z,455.63
2018-10-09T10:47:42.831Z,478.13
2018-10-09T10:48:42.833Z,461.25
2018-10-09T10:49:42.750Z,478.13
2018-10-09T10:50:42.706Z,495.00
2018-10-09T10:51:42.665Z,506.25
2018-10-09T10:52:42.624Z,511.88
2018-10-09T10:53:42.616Z,517.50
2018-10-09T10:54:42.552Z,523.13
2018-10-09T10:55:42.535Z,517.50
2018-10-09T10:56:42.477Z,511.88
2018-10-09T10:57:42.418Z,511.88
2018-10-09T10:58:42.381Z,528.75
2018-10-09T10:59:42.379Z,534.38
2018-10-09T11:00:42.315Z,511.88
2018-10-09T11:01:42.281Z,506.25
2018-10-09T11:02:42.212Z,511.88
2018-10-09T11:03:42.177Z,478.13
2018-10-09T11:04:42.163Z,433.13
2018-10-09T11:05:42.099Z,433.13
2018-10-09T11:06:42.049Z,360.00
2018-10-09T11:07:42.073Z,388.13
2018-10-09T11:08:41.971Z,376.88
2018-10-09T11:09:41.929Z,348.75
2018-10-09T11:10:41.917Z,348.75
2018-10-09T11:11:41.847Z,331.88
2018-10-09T11:12:41.807Z,309.38
2018-10-09T11:13:41.777Z,281.25
2018-10-09T11:14:41.774Z,258.75
2018-10-09T11:15:41.722Z,247.50
2018-10-09T11:16:41.642Z,247.50
2018-10-09T11:17:41.601Z,236.25
2018-10-09T11:18:41.560Z,241.88
2018-10-09T11:19:41.524Z,241.88
2018-10-09T11:20:41.515Z,253.13
2018-10-09T11:21:41.497Z,264.38
2018-10-09T11:22:41.412Z,264.38
2018-10-09T11:23:41.359Z,270.00
2018-10-09T11:24:41.350Z,281.25
2018-10-09T11:25:41.273Z,303.75
2018-10-09T11:26:41.270Z,354.38
2018-10-09T11:27:41.192Z,382.50
2018-10-09T11:28:41.163Z,393.75
2018-10-09T11:29:41.110Z,393.75
2018-10-09T11:30:41.105Z,388.13
2018-10-09T11:31:41.070Z,382.50
2018-10-09T11:32:40.986Z,371.25
2018-10-09T11:33:40.959Z,371.25
2018-10-09T11:34:40.905Z,326.25
2018-10-09T11:35:40.899Z,326.25
2018-10-09T11:36:40.824Z,303.75
2018-10-09T11:37:40.783Z,360.00
2018-10-09T11:38:40.738Z,343.13
2018-10-09T11:39:40.696Z,343.13
2018-10-09T11:40:40.692Z,343.13
2018-10-09T11:41:40.616Z,348.75
2018-10-09T11:42:40.604Z,354.38
2018-10-09T11:43:40.537Z,348.75
2018-10-09T11:44:40.497Z,354.38
2018-10-09T11:45:40.492Z,354.38
2018-10-09T11:46:40.411Z,371.25
2018-10-09T11:47:40.371Z,376.88
2018-10-09T11:48:40.332Z,388.13
2018-10-09T11:49:40.291Z,382.50
2018-10-09T11:50:40.292Z,376.88
2018-10-09T11:51:40.215Z,371.25
2018-10-09T11:52:40.169Z,376.88
2018-10-09T11:53:40.129Z,371.25
2018-10-09T11:54:40.087Z,365.63
2018-10-09T11:55:40.078Z,365.63
2018-10-09T11:56:40.011Z,343.13
2018-10-09T11:57:39.965Z,326.25
2018-10-09T11:58:39.947Z,337.50
2018-10-09T11:59:39.883Z,348.75
2018-10-09T12:00:39.884Z,354.38
2018-10-09T12:01:39.860Z,348.75
2018-10-09T12:02:39.808Z,348.75
2018-10-09T12:03:39.728Z,354.38
2018-10-09T12:04:39.682Z,343.13
2018-10-09T12:05:39.698Z,331.88
2018-10-09T12:06:39.642Z,331.88
2018-10-09T12:07:39.558Z,331.88
2018-10-09T12:08:39.522Z,331.88
2018-10-09T12:09:39.487Z,326.25
2018-10-09T12:10:39.441Z,326.25
2018-10-09T12:11:39.433Z,320.63
2018-10-09T12:12:39.360Z,320.63
2018-10-09T12:13:39.316Z,337.50
2018-10-09T12:14:39.309Z,337.50
2018-10-09T12:15:39.255Z,348.75
2018-10-09T12:16:39.228Z,343.13
2018-10-09T12:17:39.159Z,298.13
2018-10-09T12:18:39.149Z,275.63
2018-10-09T12:19:39.113Z,281.25
2018-10-09T12:20:39.043Z,270.00
2018-10-09T12:21:38.998Z,241.88
2018-10-09T12:22:38.998Z,258.75
2018-10-09T12:23:38.916Z,270.00
2018-10-09T12:24:38.877Z,270.00
2018-10-09T12:25:38.841Z,225.00
2018-10-09T12:26:38.795Z,213.75
2018-10-09T12:27:38.795Z,236.25
2018-10-09T12:28:38.715Z,270.00
2018-10-09T12:29:38.675Z,281.25
2018-10-09T12:30:38.634Z,292.50
2018-10-09T12:31:38.594Z,292.50
2018-10-09T12:32:38.598Z,303.75
2018-10-09T12:33:38.514Z,303.75
2018-10-09T12:34:38.478Z,303.75
2018-10-09T12:35:38.435Z,298.13
2018-10-09T12:36:38.406Z,298.13
2018-10-09T12:37:38.386Z,303.75
2018-10-09T12:38:38.311Z,298.13
2018-10-09T12:39:38.306Z,298.13
2018-10-09T12:40:38.237Z,298.13
2018-10-09T12:41:38.193Z,286.88
2018-10-09T12:42:38.154Z,286.88
2018-10-09T12:43:38.115Z,286.88
2018-10-09T12:44:38.122Z,292.50
2018-10-09T12:45:38.044Z,286.88
2018-10-09T12:46:38.005Z,286.88
2018-10-09T12:47:37.956Z,286.88
2018-10-09T12:48:37.916Z,286.88